Latest Weather Observations for Taree Airport

IDN60801

Issued at 2:02 pm EST Saturday 23 May 2015 (issued every 30 minutes, with the page automatically refreshed every 10 minutes)

About weather observations | Map of weather stations | Latest weather observations for NSW | Other Formats
Station Details ID: 060141 Name: TAREE AIRPORT AWS Lat: -31.89 Lon: 152.51 Height: 8.0 m
Data from the previous 72 hours. | See also: Recent months at Taree Airport
Date/Time
EST
Temp
°C
App
Temp
°C
Dew
Point
Rel
Hum
%
Delta-T
°C
Wind Press
QNH
hPa
Press
MSL
hPa
Rain
since 9 am
mm
Dir
 
Spd
km/h
Gust
km/h
Spd
kts
Gust
kts
23/02:00pm 17.1 14.6 12.2 73 2.7 W 17 28 9 15 1026.0 1026.0 0.2
23/01:30pm 16.8 14.7 12.5 76 2.4 W 15 22 8 12 1026.0 1026.0 0.2
23/01:00pm 15.5 13.2 13.0 85 1.4 WSW 17 24 9 13 1026.1 1026.1 0.2
23/12:30pm 16.1 14.1 12.7 80 1.9 WSW 15 22 8 12 1026.2 1026.2 0.2
23/12:11pm 15.5 13.6 13.0 85 1.4 WSW 15 24 8 13 1026.5 1026.5 0.2
23/12:00pm 15.1 12.8 13.1 88 1.1 WSW 17 28 9 15 1026.7 1026.7 0.2
23/11:55am 15.0 12.1 12.9 87 1.2 SW 20 28 11 15 1026.8 1026.8 0.2
23/11:43am 16.2 14.1 13.5 84 1.5 WSW 17 22 9 12 1026.8 1026.8 0.0
23/11:30am 15.6 13.7 12.9 84 1.5 SW 15 22 8 12 1027.0 1027.0 0.0
23/11:25am 15.7 13.4 13.0 84 1.5 SW 17 20 9 11 1027.2 1027.2 0.0
23/11:00am 16.1 13.1 12.1 77 2.2 WSW 19 28 10 15 1027.2 1027.2 0.0
23/10:30am 16.3 13.9 12.7 79 2.0 WSW 17 26 9 14 1027.3 1027.3 0.0
23/10:00am 16.5 13.6 12.3 76 2.3 WSW 19 28 10 15 1027.1 1027.1 0.0
23/09:30am 15.9 13.3 11.9 77 2.2 WSW 17 24 9 13 1027.0 1027.0 0.0
23/09:00am 15.2 13.5 12.3 83 1.6 WSW 13 19 7 10 1026.8 1026.8 25.8
23/08:30am 14.4 12.3 11.2 81 1.7 W 13 20 7 11 1026.6 1026.6 25.8
23/08:00am 13.6 11.3 10.6 82 1.6 W 13 19 7 10 1026.2 1026.2 25.8
23/07:30am 12.7 10.8 10.4 86 1.2 W 11 15 6 8 1025.8 1025.8 25.8
23/07:00am 12.4 10.5 10.5 88 1.0 W 11 15 6 8 1025.5 1025.5 25.8
23/06:30am 12.5 10.7 10.7 89 0.9 W 11 17 6 9 1025.1 1025.1 25.8
23/06:00am 12.3 10.5 10.7 90 0.8 WNW 11 15 6 8 1025.0 1025.0 25.8
23/05:30am 12.6 11.2 10.8 89 0.9 WSW 9 13 5 7 1024.7 1024.7 25.8
23/05:00am 12.6 9.6 10.8 89 0.9 WSW 17 20 9 11 1024.3 1024.3 25.8
23/04:30am 12.5 10.6 10.6 88 1.0 W 11 15 6 8 1023.8 1023.8 25.8
23/04:00am 12.0 10.5 10.7 92 0.7 W 9 13 5 7 1023.8 1023.8 25.8
23/03:30am 12.1 10.3 11.0 93 0.6 WNW 11 15 6 8 1023.7 1023.7 25.8
23/03:00am 12.3 10.2 11.0 92 0.7 W 13 17 7 9 1023.7 1023.7 25.6
23/02:30am 12.5 10.0 11.2 92 0.7 W 15 24 8 13 1023.7 1023.7 25.6
23/02:00am 12.6 10.1 11.0 90 0.8 W 15 20 8 11 1023.7 1023.7 25.6
23/01:30am 12.8 10.8 11.5 92 0.7 WSW 13 17 7 9 1024.0 1024.0 25.6
23/01:00am 13.1 10.3 11.5 90 0.8 WSW 17 24 9 13 1023.7 1023.7 25.6
23/12:30am 13.0 9.8 11.9 93 0.6 WSW 20 35 11 19 1023.6 1023.6 25.6
23/12:00am 13.6 11.3 11.7 88 1.0 WSW 15 20 8 11 1023.7 1023.7 25.6
 
Date/Time
EST
Temp
°C
App
Temp
°C
Dew
Point
Rel
Hum
%
Delta-T
°C
Wind Press
QNH
hPa
Press
MSL
hPa
Rain
since 9 am
mm
Dir
 
Spd
km/h
Gust
km/h
Spd
kts
Gust
kts
22/11:30pm 13.6 11.2 11.3 86 1.2 WSW 15 24 8 13 1023.3 1023.3 25.6
22/11:00pm 13.7 11.4 11.6 87 1.1 WSW 15 22 8 12 1023.1 1023.1 25.6
22/10:30pm 13.6 11.3 11.8 89 1.0 WSW 15 19 8 10 1022.7 1022.7 25.6
22/10:00pm 13.5 11.7 12.1 91 0.8 W 13 19 7 10 1022.8 1022.8 25.6
22/09:30pm 13.8 10.9 12.2 90 0.9 WSW 19 30 10 16 1022.2 1022.2 25.6
22/09:00pm 14.0 12.0 12.6 91 0.8 SW 15 24 8 13 1022.1 1022.1 25.0
22/08:30pm 14.5 11.7 12.5 88 1.1 SW 19 28 10 15 1021.8 1021.8 24.8
22/08:00pm 14.4 12.1 13.0 91 0.8 WSW 17 22 9 12 1021.3 1021.3 24.6
22/07:30pm 14.1 12.6 13.0 93 0.6 WSW 13 19 7 10 1020.6 1020.6 24.4
22/07:16pm 14.2 11.6 13.2 94 0.6 SW 19 28 10 15 1020.3 1020.3 24.4
22/07:00pm 14.3 10.8 13.5 95 0.4 SW 24 32 13 17 1020.2 1020.2 24.4
22/06:59pm 14.3 10.8 13.5 95 0.4 SW 24 32 13 17 1020.2 1020.2 24.4
22/06:30pm 14.5 11.0 13.5 94 0.6 SW 24 41 13 22 1019.5 1019.5 23.8
22/06:00pm 14.8 9.8 13.5 92 0.7 SSW 32 39 17 21 1018.8 1018.8 23.6
22/05:54pm 14.9 10.0 13.6 92 0.7 SSW 32 50 17 27 1018.7 1018.7 23.6
22/05:49pm 14.8 9.9 13.7 93 0.6 SSW 32 50 17 27 1018.5 1018.5 23.6
22/05:37pm 14.6 9.7 13.6 94 0.6 SSW 32 48 17 26 1018.3 1018.3 23.4
22/05:31pm 14.9 10.3 13.6 92 0.7 SW 30 48 16 26 1018.0 1018.0 23.2
22/05:30pm 14.8 10.3 13.7 93 0.6 SW 30 43 16 23 1018.1 1018.1 23.2
22/05:16pm 14.7 11.9 14.2 97 0.3 SW 22 32 12 17 1017.9 1017.9 22.4
22/05:00pm 14.7 12.0 14.5 99 0.1 SSW 22 32 12 17 1017.3 1017.3 21.4
22/04:58pm 14.7 12.0 14.5 99 0.1 SSW 22 37 12 20 1017.5 1017.5 21.2
22/04:55pm 14.7 11.2 14.4 98 0.2 SSW 26 39 14 21 1017.4 1017.4 20.8
22/04:32pm 14.7 10.7 14.2 97 0.3 SW 28 41 15 22 1016.8 1016.8 15.6
22/04:30pm 14.5 11.2 14.0 97 0.3 SW 24 37 13 20 1016.8 1016.8 15.0
22/04:00pm 14.2 12.1 13.6 96 0.3 WSW 17 24 9 13 1016.1 1016.1 9.8
22/03:59pm 14.2 12.1 13.6 96 0.3 WSW 17 24 9 13 1016.0 1016.0 9.8
22/03:40pm 14.3 11.8 13.5 95 0.4 WSW 19 28 10 15 1015.8 1015.8 8.2
22/03:30pm 14.3 11.9 13.7 96 0.3 WSW 19 28 10 15 1015.4 1015.4 7.6
22/03:11pm 14.2 11.7 13.4 95 0.4 WSW 19 28 10 15 1015.4 1015.4 4.8
22/03:00pm 14.4 11.9 13.4 94 0.6 WSW 19 28 10 15 1015.3 1015.3 3.0
22/02:30pm 14.6 10.9 12.8 89 1.0 WSW 24 33 13 18 1014.4 1014.4 2.2
22/02:00pm 14.8 11.9 12.8 88 1.1 W 20 30 11 16 1014.2 1014.2 1.6
22/01:30pm 14.4 10.9 12.3 87 1.1 W 22 32 12 17 1013.8 1013.8 1.4
22/01:00pm 15.1 12.1 12.1 82 1.6 WSW 19 28 10 15 1014.0 1014.0 0.6
22/12:30pm 15.3 12.0 11.7 79 1.9 WSW 20 33 11 18 1013.8 1013.8 0.4
22/12:00pm 16.0 11.8 11.0 72 2.7 WSW 24 39 13 21 1013.9 1013.9 0.0
22/11:30am 17.2 12.9 10.8 66 3.4 WSW 24 35 13 19 1014.1 1014.1 0.0
22/11:00am 16.4 13.4 11.8 74 2.5 W 19 28 10 15 1014.6 1014.6 0.0
22/10:30am 16.2 13.1 11.6 74 2.5 WSW 19 26 10 14 1014.7 1014.7 0.0
22/10:00am 16.2 12.8 11.4 73 2.6 W 20 30 11 16 1014.5 1014.5 0.0
22/09:30am 15.6 12.9 11.6 77 2.2 W 17 30 9 16 1014.4 1014.4 0.0
22/09:00am 15.5 12.2 11.5 77 2.2 W 20 30 11 16 1014.4 1014.4 3.0
22/08:30am 15.5 12.9 11.9 79 2.0 W 17 28 9 15 1014.5 1014.5 3.0
22/08:00am 15.0 12.7 11.6 80 1.8 W 15 22 8 12 1014.5 1014.5 3.0
22/07:30am 14.3 11.9 11.5 83 1.5 W 15 20 8 11 1014.5 1014.5 3.0
22/07:00am 13.6 11.6 11.5 87 1.1 W 13 17 7 9 1014.6 1014.6 3.0
22/06:30am 13.2 11.6 11.6 90 0.9 W 11 13 6 7 1014.3 1014.3 3.0
22/06:00am 13.6 11.7 11.7 88 1.0 W 13 19 7 10 1014.0 1014.0 3.0
22/05:30am 13.3 11.7 11.7 90 0.9 WNW 11 15 6 8 1014.0 1014.0 3.0
22/05:00am 13.6 11.7 11.8 89 1.0 W 13 19 7 10 1013.9 1013.9 3.0
22/04:30am 13.3 12.3 12.2 93 0.6 WNW 9 13 5 7 1014.1 1014.1 3.0
22/04:00am 13.5 11.8 12.6 94 0.5 NW 13 15 7 8 1013.9 1013.9 3.0
22/03:30am 13.7 12.9 12.9 95 0.4 WNW 9 11 5 6 1014.1 1014.1 3.0
22/03:00am 14.0 12.9 13.2 95 0.4 WNW 11 15 6 8 1014.3 1014.3 3.0
22/02:30am 13.9 12.9 13.3 96 0.3 NW 11 13 6 7 1014.5 1014.5 3.0
22/02:00am 14.3 13.4 13.7 96 0.3 WNW 11 13 6 7 1014.7 1014.7 3.0
22/01:30am 14.5 13.8 14.2 98 0.2 W 11 15 6 8 1015.0 1015.0 3.0
22/01:00am 14.5 13.7 14.0 97 0.3 WSW 11 15 6 8 1015.3 1015.3 3.0
22/12:30am 14.7 13.6 14.4 98 0.2 WNW 13 15 7 8 1015.3 1015.3 2.6
22/12:00am 14.7 14.0 14.4 98 0.2 W 11 15 6 8 1015.6 1015.6 2.4
 
Date/Time
EST
Temp
°C
App
Temp
°C
Dew
Point
Rel
Hum
%
Delta-T
°C
Wind Press
QNH
hPa
Press
MSL
hPa
Rain
since 9 am
mm
Dir
 
Spd
km/h
Gust
km/h
Spd
kts
Gust
kts
21/11:30pm 15.1 14.3 14.1 94 0.6 WNW 11 15 6 8 1015.8 1015.8 1.6
21/11:00pm 14.9 13.7 14.1 95 0.5 WNW 13 17 7 9 1016.1 1016.1 0.6
21/10:30pm 14.9 14.5 14.1 95 0.5 W 9 15 5 8 1016.0 1016.0 0.0
21/10:00pm 15.3 14.8 13.8 91 0.8 NW 9 11 5 6 1016.0 1016.0 0.0
21/09:30pm 15.3 14.8 13.8 91 0.8 WNW 9 11 5 6 1016.2 1016.2 0.0
21/09:00pm 15.5 14.7 13.9 90 0.9 WNW 11 13 6 7 1016.5 1016.5 0.0
21/08:30pm 15.6 15.7 14.0 90 0.9 WNW 6 7 3 4 1016.5 1016.5 0.0
21/08:00pm 15.4 14.7 14.3 93 0.6 W 11 13 6 7 1016.6 1016.6 0.0
21/07:30pm 15.4 15.9 14.1 92 0.7 WNW 4 7 2 4 1016.7 1016.7 0.0
21/07:00pm 15.9 16.1 14.1 89 1.0 SW 6 7 3 4 1016.7 1016.7 0.0
21/06:43pm 15.5 1.2 14.0 91 0.8 - 82 104 44 56 1016.7 1016.7 0.0
21/06:30pm 15.7 -2.8 14.1 90 0.9 NW 104 104 56 56 1016.8 1016.8 0.0
21/06:19pm 15.6 9.1 14.0 90 0.9 NW 41 104 22 56 1016.7 1016.7 0.0
21/06:18pm 15.6 10.8 14.0 90 0.9 NW 32 104 17 56 1016.7 1016.7 0.0
21/06:17pm 15.7 12.4 14.1 90 0.9 NW 24 104 13 56 1016.8 1016.8 0.0
21/06:00pm 16.2 16.2 13.7 85 1.4 W 6 7 3 4 1016.6 1016.6 0.0
21/05:30pm 16.6 17.9 14.2 86 1.4 CALM 0 0 0 0 1016.3 1016.3 0.0
21/05:00pm 17.2 18.4 13.7 80 2.0 CALM 0 0 0 0 1016.0 1016.0 0.0
21/04:30pm 17.7 19.2 14.6 82 1.8 CALM 0 0 0 0 1016.1 1016.1 0.0
21/04:00pm 18.5 18.1 13.1 71 3.0 SSW 7 9 4 5 1016.4 1016.4 0.0
21/03:30pm 18.9 18.7 13.7 72 3.0 S 7 9 4 5 1016.2 1016.2 0.0
21/03:00pm 19.1 18.6 13.9 72 3.0 SSE 9 11 5 6 1015.7 1015.7 0.0
21/02:30pm 19.3 19.2 13.9 71 3.1 SSW 7 9 4 5 1016.2 1016.2 0.0
21/02:00pm 19.8 19.5 12.8 64 3.9 S 6 9 3 5 1016.0 1016.0 0.0
21/01:30pm 20.5 20.3 13.5 64 4.0 WSW 7 9 4 5 1016.2 1016.2 0.0
21/01:00pm 19.7 20.2 12.7 64 3.9 NNE 2 7 1 4 1016.2 1016.2 0.0
21/12:30pm 18.9 18.8 12.2 65 3.7 NW 4 9 2 5 1016.8 1016.8 0.0
21/12:00pm 18.6 18.9 14.5 77 2.4 W 6 9 3 5 1017.5 1017.5 0.0
21/11:30am 18.4 18.8 14.7 79 2.1 N 6 9 3 5 1017.9 1017.9 0.0
21/11:00am 17.3 13.8 14.6 84 1.6 NNW 26 104 14 56 1018.2 1018.2 0.0
21/10:57am 17.1 9.4 14.4 84 1.5 NW 48 104 26 56 1018.3 1018.3 0.0
21/10:56am 17.1 7.9 14.4 84 1.5 NW 56 104 30 56 1018.3 1018.3 0.0
21/10:55am 17.1 6.6 14.7 86 1.4 WNW 63 104 34 56 1018.4 1018.4 0.0
21/10:51am 17.0 9.5 15.0 88 1.2 W 48 104 26 56 1018.5 1018.5 0.0
21/10:50am 16.8 9.2 14.8 88 1.2 W 48 104 26 56 1018.5 1018.5 0.0
21/10:47am 16.6 13.1 14.4 87 1.3 WNW 26 104 14 56 1018.6 1018.6 0.0
21/10:46am 16.7 15.4 14.7 88 1.2 WNW 15 104 8 56 1018.6 1018.6 0.0
21/10:30am 16.5 18.4 15.7 95 0.5 CALM 0 0 0 0 1018.7 1018.7 0.0
21/10:00am 15.5 15.7 14.7 95 0.5 NW 7 9 4 5 1019.3 1019.3 0.0
21/09:30am 15.2 16.7 14.6 96 0.3 CALM 0 0 0 0 1019.1 1019.1 0.0
21/09:00am 15.0 14.8 14.7 98 0.2 WNW 9 11 5 6 1019.5 1019.5 6.0
21/08:30am 14.7 15.0 14.5 99 0.1 NNE 6 9 3 5 1019.1 1019.1 6.0
21/08:28am 14.8 15.1 14.6 99 0.1 NE 6 9 3 5 1018.9 1018.9 6.0
21/08:14am 14.7 15.4 14.5 99 0.1 ENE 4 7 2 4 1018.4 1018.4 5.8
21/08:00am 14.7 14.8 14.5 99 0.1 NNW 7 9 4 5 1019.2 1019.2 5.4
21/07:30am 14.9 14.7 14.7 99 0.1 WNW 9 13 5 7 1019.2 1019.2 5.0
21/07:00am 14.7 14.8 14.5 99 0.1 NE 7 9 4 5 1017.8 1017.8 4.8
21/06:30am 15.0 16.6 14.8 99 0.1 CALM 0 0 0 0 1017.8 1017.8 4.6
21/06:00am 15.0 15.4 14.8 99 0.1 NNE 6 7 3 4 1017.6 1017.6 4.2
21/05:30am 15.3 15.3 15.1 99 0.1 W 9 11 5 6 1017.5 1017.5 4.0
21/05:00am 15.2 15.1 15.0 99 0.1 WSW 9 11 5 6 1016.9 1016.9 4.0
21/04:30am 15.0 16.6 14.8 99 0.1 CALM 0 0 0 0 1016.2 1016.2 4.0
21/04:00am 15.1 15.9 14.9 99 0.1 NE 4 7 2 4 1016.1 1016.1 4.0
21/03:30am 15.3 15.8 15.1 99 0.1 NW 6 7 3 4 1017.1 1017.1 4.0
21/03:00am 15.3 15.6 15.0 98 0.2 NNE 7 9 4 5 1017.3 1017.3 4.0
21/02:30am 15.6 15.6 15.3 98 0.2 WSW 9 11 5 6 1017.3 1017.3 4.0
21/02:00am 15.7 15.8 15.4 98 0.2 W 9 11 5 6 1018.0 1018.0 4.0
21/01:30am 15.8 16.9 15.5 98 0.2 W 4 7 2 4 1018.0 1018.0 3.8
21/01:00am 15.8 15.5 15.5 98 0.2 WSW 11 13 6 7 1017.7 1017.7 3.8
21/12:30am 15.8 15.8 15.3 97 0.3 WSW 9 11 5 6 1018.0 1018.0 3.6
21/12:00am 16.0 16.0 15.2 95 0.5 NW 9 15 5 8 1018.3 1018.3 3.6
 
Date/Time
EST
Temp
°C
App
Temp
°C
Dew
Point
Rel
Hum
%
Delta-T
°C
Wind Press
QNH
hPa
Press
MSL
hPa
Rain
since 9 am
mm
Dir
 
Spd
km/h
Gust
km/h
Spd
kts
Gust
kts
20/11:30pm 16.1 16.1 15.1 94 0.6 WNW 9 11 5 6 1018.6 1018.6 3.2
20/11:00pm 16.2 16.3 15.4 95 0.5 WNW 9 11 5 6 1018.7 1018.7 2.2
20/10:30pm 16.5 16.7 15.7 95 0.5 WSW 9 11 5 6 1018.3 1018.3 1.4
20/10:12pm 16.8 17.3 15.5 92 0.8 WNW 7 11 4 6 1018.3 1018.3 0.6
20/10:00pm 17.1 16.9 15.6 91 0.9 WSW 11 17 6 9 1018.2 1018.2 0.4
20/09:58pm 17.1 16.8 15.4 90 1.0 WSW 11 17 6 9 1018.1 1018.1 0.4
20/09:30pm 17.5 17.5 15.3 87 1.3 W 9 11 5 6 1017.9 1017.9 0.2
20/09:00pm 17.4 17.8 15.4 88 1.2 WNW 7 11 4 6 1017.9 1017.9 0.2
20/08:30pm 17.4 19.2 15.4 88 1.2 CALM 0 0 0 0 1017.5 1017.5 0.2
20/08:00pm 17.9 17.8 15.0 83 1.7 SW 9 15 5 8 1017.0 1017.0 0.2
20/07:30pm 18.7 15.7 14.8 78 2.3 SW 24 35 13 19 1016.3 1016.3 0.2
20/07:00pm 19.5 20.0 16.5 83 1.8 ENE 9 15 5 8 1016.0 1016.0 0.2
20/06:30pm 19.2 19.7 16.6 85 1.6 SE 9 17 5 9 1015.9 1015.9 0.2
20/06:00pm 19.4 19.8 16.4 83 1.8 E 9 13 5 7 1015.4 1015.4 0.2
20/05:30pm 20.1 20.7 16.7 81 2.1 ENE 9 11 5 6 1015.3 1015.3 0.2
20/05:00pm 21.0 21.9 16.6 76 2.7 ENE 7 11 4 6 1015.0 1015.0 0.2
20/04:30pm 22.6 22.9 15.9 66 4.0 NE 9 13 5 7 1014.7 1014.7 0.2
20/04:00pm 23.8 24.3 15.6 60 4.9 N 7 9 4 5 1014.6 1014.6 0.2
20/03:30pm 24.2 24.8 15.7 59 5.1 NNW 7 11 4 6 1014.5 1014.5 0.2
20/03:00pm 25.0 26.6 15.9 57 5.5 WNW 2 7 1 4 1014.7 1014.7 0.2
20/02:30pm 24.1 25.1 15.3 58 5.3 WSW 4 9 2 5 1014.7 1014.7 0.2

Other Formats:

Comma delimited format used in spreadsheet applications
http://www.bom.gov.au/fwo/IDN60801/IDN60801.95784.axf

JavaScript Object Notation format (JSON) in row-major order
http://www.bom.gov.au/fwo/IDN60801/IDN60801.95784.json